sensor_id;sensor_type;location;lat;lon;timestamp;temperature;humidity
13794;DHT22;31160;49.500;7.772;2023-07-31T00:00:31;17.70;99.90
13794;DHT22;31160;49.500;7.772;2023-07-31T00:02:58;17.70;99.90
13794;DHT22;31160;49.500;7.772;2023-07-31T00:05:26;17.90;99.90
13794;DHT22;31160;49.500;7.772;2023-07-31T00:07:52;17.80;99.90
13794;DHT22;31160;49.500;7.772;2023-07-31T00:10:20;17.80;99.90
13794;DHT22;31160;49.500;7.772;2023-07-31T00:12:47;17.80;99.90
13794;DHT22;31160;49.500;7.772;2023-07-31T00:15:15;17.80;99.90
13794;DHT22;31160;49.500;7.772;2023-07-31T00:17:41;17.80;99.90
13794;DHT22;31160;49.500;7.772;2023-07-31T00:20:08;17.70;99.90
13794;DHT22;31160;49.500;7.772;2023-07-31T00:22:36;17.70;99.90
13794;DHT22;31160;49.500;7.772;2023-07-31T00:25:03;17.70;99.90
13794;DHT22;31160;49.500;7.772;2023-07-31T00:27:30;17.60;99.90
13794;DHT22;31160;49.500;7.772;2023-07-31T00:29:57;17.50;99.90
13794;DHT22;31160;49.500;7.772;2023-07-31T00:32:25;17.60;99.90
13794;DHT22;31160;49.500;7.772;2023-07-31T00:34:52;17.70;99.90
13794;DHT22;31160;49.500;7.772;2023-07-31T00:37:18;17.60;99.90
13794;DHT22;31160;49.500;7.772;2023-07-31T00:39:45;17.70;99.90
13794;DHT22;31160;49.500;7.772;2023-07-31T00:42:12;17.70;99.90
13794;DHT22;31160;49.500;7.772;2023-07-31T00:44:38;17.70;99.90
13794;DHT22;31160;49.500;7.772;2023-07-31T00:47:05;17.70;99.90
13794;DHT22;31160;49.500;7.772;2023-07-31T00:49:32;17.70;99.90
13794;DHT22;31160;49.500;7.772;2023-07-31T00:51:59;17.50;99.90
13794;DHT22;31160;49.500;7.772;2023-07-31T00:54:27;17.40;99.90
13794;DHT22;31160;49.500;7.772;2023-07-31T00:56:54;17.40;99.90
13794;DHT22;31160;49.500;7.772;2023-07-31T00:59:21;17.30;99.90
13794;DHT22;31160;49.500;7.772;2023-07-31T01:01:48;17.40;99.90
13794;DHT22;31160;49.500;7.772;2023-07-31T01:04:16;17.40;99.90
13794;DHT22;31160;49.500;7.772;2023-07-31T01:12:01;17.60;99.90
13794;DHT22;31160;49.500;7.772;2023-07-31T01:14:29;17.60;99.90
13794;DHT22;31160;49.500;7.772;2023-07-31T01:16:56;17.70;99.90
13794;DHT22;31160;49.500;7.772;2023-07-31T01:19:24;17.70;99.90
13794;DHT22;31160;49.500;7.772;2023-07-31T01:22:21;17.80;99.90
13794;DHT22;31160;49.500;7.772;2023-07-31T01:24:55;17.80;99.90
13794;DHT22;31160;49.500;7.772;2023-07-31T01:27:30;17.80;99.90
13794;DHT22;31160;49.500;7.772;2023-07-31T01:30:13;17.90;99.90
13794;DHT22;31160;49.500;7.772;2023-07-31T01:32:43;17.90;99.90
13794;DHT22;31160;49.500;7.772;2023-07-31T01:35:10;17.80;99.90
13794;DHT22;31160;49.500;7.772;2023-07-31T01:37:37;17.80;99.90
13794;DHT22;31160;49.500;7.772;2023-07-31T01:40:05;17.80;99.90
13794;DHT22;31160;49.500;7.772;2023-07-31T01:42:32;17.70;99.90
13794;DHT22;31160;49.500;7.772;2023-07-31T01:44:58;17.70;99.90
13794;DHT22;31160;49.500;7.772;2023-07-31T01:47:25;17.70;99.90
13794;DHT22;31160;49.500;7.772;2023-07-31T01:49:52;17.60;99.90
13794;DHT22;31160;49.500;7.772;2023-07-31T01:52:19;17.50;99.90
13794;DHT22;31160;49.500;7.772;2023-07-31T01:54:45;17.50;99.90
13794;DHT22;31160;49.500;7.772;2023-07-31T01:57:12;17.50;99.90
13794;DHT22;31160;49.500;7.772;2023-07-31T01:59:39;17.40;99.90
13794;DHT22;31160;49.500;7.772;2023-07-31T02:02:06;17.50;99.90
13794;DHT22;31160;49.500;7.772;2023-07-31T02:04:38;17.40;99.90
13794;DHT22;31160;49.500;7.772;2023-07-31T02:07:07;17.40;99.90
13794;DHT22;31160;49.500;7.772;2023-07-31T02:09:34;17.50;99.90
13794;DHT22;31160;49.500;7.772;2023-07-31T02:12:01;17.40;99.90
13794;DHT22;31160;49.500;7.772;2023-07-31T02:14:28;17.40;99.90
13794;DHT22;31160;49.500;7.772;2023-07-31T02:16:55;17.30;99.90
13794;DHT22;31160;49.500;7.772;2023-07-31T02:19:21;17.30;99.90
13794;DHT22;31160;49.500;7.772;2023-07-31T02:21:48;17.10;99.90
13794;DHT22;31160;49.500;7.772;2023-07-31T02:24:15;17.20;99.90
13794;DHT22;31160;49.500;7.772;2023-07-31T02:26:42;17.20;99.90
13794;DHT22;31160;49.500;7.772;2023-07-31T02:29:09;17.20;99.90
13794;DHT22;31160;49.500;7.772;2023-07-31T02:31:35;17.10;99.90
13794;DHT22;31160;49.500;7.772;2023-07-31T02:34:02;17.10;99.90
13794;DHT22;31160;49.500;7.772;2023-07-31T02:36:29;17.10;99.90
13794;DHT22;31160;49.500;7.772;2023-07-31T02:38:56;17.10;99.90
13794;DHT22;31160;49.500;7.772;2023-07-31T02:41:22;17.10;99.90
13794;DHT22;31160;49.500;7.772;2023-07-31T02:43:49;17.00;99.90
13794;DHT22;31160;49.500;7.772;2023-07-31T02:46:16;17.00;99.90
13794;DHT22;31160;49.500;7.772;2023-07-31T02:48:42;17.00;99.90
13794;DHT22;31160;49.500;7.772;2023-07-31T02:51:09;16.70;99.90
13794;DHT22;31160;49.500;7.772;2023-07-31T02:53:36;16.60;99.90
13794;DHT22;31160;49.500;7.772;2023-07-31T02:56:03;16.80;99.90
13794;DHT22;31160;49.500;7.772;2023-07-31T02:58:29;16.80;99.90
13794;DHT22;31160;49.500;7.772;2023-07-31T03:00:58;16.90;99.90
13794;DHT22;31160;49.500;7.772;2023-07-31T03:03:26;16.90;99.90
13794;DHT22;31160;49.500;7.772;2023-07-31T03:05:52;17.00;99.90
13794;DHT22;31160;49.500;7.772;2023-07-31T03:08:20;17.00;99.90
13794;DHT22;31160;49.500;7.772;2023-07-31T03:10:48;16.90;99.90
13794;DHT22;31160;49.500;7.772;2023-07-31T03:13:15;16.90;99.90
13794;DHT22;31160;49.500;7.772;2023-07-31T03:15:42;16.90;99.90
13794;DHT22;31160;49.500;7.772;2023-07-31T03:18:10;16.80;99.90
13794;DHT22;31160;49.500;7.772;2023-07-31T03:20:37;16.70;99.90
13794;DHT22;31160;49.500;7.772;2023-07-31T03:23:04;16.60;99.90
13794;DHT22;31160;49.500;7.772;2023-07-31T03:25:30;16.70;99.90
13794;DHT22;31160;49.500;7.772;2023-07-31T03:27:57;16.70;99.90
13794;DHT22;31160;49.500;7.772;2023-07-31T03:30:24;16.80;99.90
13794;DHT22;31160;49.500;7.772;2023-07-31T03:32:51;16.80;99.90
13794;DHT22;31160;49.500;7.772;2023-07-31T03:35:18;16.70;99.90
13794;DHT22;31160;49.500;7.772;2023-07-31T03:37:44;16.70;99.90
13794;DHT22;31160;49.500;7.772;2023-07-31T03:40:11;16.70;99.90
13794;DHT22;31160;49.500;7.772;2023-07-31T03:42:38;16.80;99.90
13794;DHT22;31160;49.500;7.772;2023-07-31T03:45:05;16.70;99.90
13794;DHT22;31160;49.500;7.772;2023-07-31T03:47:32;16.70;99.90
13794;DHT22;31160;49.500;7.772;2023-07-31T03:49:59;16.70;99.90
13794;DHT22;31160;49.500;7.772;2023-07-31T03:52:26;16.70;99.90
13794;DHT22;31160;49.500;7.772;2023-07-31T03:54:53;16.70;99.90
13794;DHT22;31160;49.500;7.772;2023-07-31T03:57:20;16.70;99.90
13794;DHT22;31160;49.500;7.772;2023-07-31T03:59:46;16.60;99.90
13794;DHT22;31160;49.500;7.772;2023-07-31T04:02:13;16.70;99.90
13794;DHT22;31160;49.500;7.772;2023-07-31T04:04:40;16.70;99.90
13794;DHT22;31160;49.500;7.772;2023-07-31T04:07:07;16.60;99.90
13794;DHT22;31160;49.500;7.772;2023-07-31T04:09:34;16.50;99.90
13794;DHT22;31160;49.500;7.772;2023-07-31T04:12:00;16.60;99.90
13794;DHT22;31160;49.500;7.772;2023-07-31T04:14:27;16.60;99.90
13794;DHT22;31160;49.500;7.772;2023-07-31T04:16:54;16.70;99.90
13794;DHT22;31160;49.500;7.772;2023-07-31T04:19:21;16.70;99.90
13794;DHT22;31160;49.500;7.772;2023-07-31T04:21:47;16.70;99.90
13794;DHT22;31160;49.500;7.772;2023-07-31T04:24:14;16.60;99.90
13794;DHT22;31160;49.500;7.772;2023-07-31T04:26:41;16.60;99.90
13794;DHT22;31160;49.500;7.772;2023-07-31T04:29:08;16.60;99.90
13794;DHT22;31160;49.500;7.772;2023-07-31T04:31:35;16.60;99.90
13794;DHT22;31160;49.500;7.772;2023-07-31T04:34:05;16.60;99.90
13794;DHT22;31160;49.500;7.772;2023-07-31T04:36:32;16.60;99.90
13794;DHT22;31160;49.500;7.772;2023-07-31T04:38:59;16.70;99.90
13794;DHT22;31160;49.500;7.772;2023-07-31T04:41:26;16.70;99.90
13794;DHT22;31160;49.500;7.772;2023-07-31T04:43:53;16.70;99.90
13794;DHT22;31160;49.500;7.772;2023-07-31T04:46:20;16.70;99.90
13794;DHT22;31160;49.500;7.772;2023-07-31T04:48:46;16.80;99.90
13794;DHT22;31160;49.500;7.772;2023-07-31T04:51:13;16.80;99.90
13794;DHT22;31160;49.500;7.772;2023-07-31T04:53:40;16.80;99.90
13794;DHT22;31160;49.500;7.772;2023-07-31T04:56:07;16.80;99.90
13794;DHT22;31160;49.500;7.772;2023-07-31T04:58:33;16.90;99.90
13794;DHT22;31160;49.500;7.772;2023-07-31T05:01:00;17.00;99.90
13794;DHT22;31160;49.500;7.772;2023-07-31T05:03:27;17.00;99.90
13794;DHT22;31160;49.500;7.772;2023-07-31T05:05:54;17.20;99.90
13794;DHT22;31160;49.500;7.772;2023-07-31T05:08:20;17.30;99.90
13794;DHT22;31160;49.500;7.772;2023-07-31T05:10:47;17.40;99.90
13794;DHT22;31160;49.500;7.772;2023-07-31T05:13:15;17.50;99.90
13794;DHT22;31160;49.500;7.772;2023-07-31T05:15:41;17.70;99.90
13794;DHT22;31160;49.500;7.772;2023-07-31T05:18:08;17.90;99.90
13794;DHT22;31160;49.500;7.772;2023-07-31T05:20:35;18.00;99.90
13794;DHT22;31160;49.500;7.772;2023-07-31T05:23:02;18.10;99.90
13794;DHT22;31160;49.500;7.772;2023-07-31T05:25:28;18.00;99.90
13794;DHT22;31160;49.500;7.772;2023-07-31T05:27:55;18.00;99.90
13794;DHT22;31160;49.500;7.772;2023-07-31T05:30:22;18.20;99.90
13794;DHT22;31160;49.500;7.772;2023-07-31T05:32:49;18.30;99.90
13794;DHT22;31160;49.500;7.772;2023-07-31T05:35:16;18.40;99.90
13794;DHT22;31160;49.500;7.772;2023-07-31T05:37:42;18.40;99.90
13794;DHT22;31160;49.500;7.772;2023-07-31T05:40:09;18.50;99.90
13794;DHT22;31160;49.500;7.772;2023-07-31T05:42:36;18.50;99.90
13794;DHT22;31160;49.500;7.772;2023-07-31T05:45:06;18.40;99.90
13794;DHT22;31160;49.500;7.772;2023-07-31T05:47:33;18.40;99.90
13794;DHT22;31160;49.500;7.772;2023-07-31T05:50:00;18.30;99.90
13794;DHT22;31160;49.500;7.772;2023-07-31T05:52:27;18.40;99.90
13794;DHT22;31160;49.500;7.772;2023-07-31T05:54:55;18.40;99.90
13794;DHT22;31160;49.500;7.772;2023-07-31T05:57:22;18.40;99.90
13794;DHT22;31160;49.500;7.772;2023-07-31T05:59:49;18.40;99.90
13794;DHT22;31160;49.500;7.772;2023-07-31T06:02:16;18.60;99.90
13794;DHT22;31160;49.500;7.772;2023-07-31T06:04:42;18.80;99.90
13794;DHT22;31160;49.500;7.772;2023-07-31T06:07:09;18.80;99.90
13794;DHT22;31160;49.500;7.772;2023-07-31T06:09:37;18.80;99.90
13794;DHT22;31160;49.500;7.772;2023-07-31T06:12:04;18.90;99.90
13794;DHT22;31160;49.500;7.772;2023-07-31T06:14:31;18.90;99.90
13794;DHT22;31160;49.500;7.772;2023-07-31T06:16:57;19.00;99.90
13794;DHT22;31160;49.500;7.772;2023-07-31T06:19:24;19.20;99.90
13794;DHT22;31160;49.500;7.772;2023-07-31T06:21:51;19.20;99.90
13794;DHT22;31160;49.500;7.772;2023-07-31T06:24:18;19.10;99.90
13794;DHT22;31160;49.500;7.772;2023-07-31T06:26:47;19.00;99.90
13794;DHT22;31160;49.500;7.772;2023-07-31T06:29:13;19.00;99.90
13794;DHT22;31160;49.500;7.772;2023-07-31T06:31:40;19.20;99.90
13794;DHT22;31160;49.500;7.772;2023-07-31T06:34:07;19.30;99.90
13794;DHT22;31160;49.500;7.772;2023-07-31T06:36:34;19.70;99.90
13794;DHT22;31160;49.500;7.772;2023-07-31T06:39:01;19.80;99.90
13794;DHT22;31160;49.500;7.772;2023-07-31T06:41:28;20.00;99.90
13794;DHT22;31160;49.500;7.772;2023-07-31T06:43:54;20.30;99.90
13794;DHT22;31160;49.500;7.772;2023-07-31T06:46:21;20.40;99.90
13794;DHT22;31160;49.500;7.772;2023-07-31T06:48:48;20.80;99.90
13794;DHT22;31160;49.500;7.772;2023-07-31T06:51:14;21.00;99.90
13794;DHT22;31160;49.500;7.772;2023-07-31T06:53:41;21.40;99.90
13794;DHT22;31160;49.500;7.772;2023-07-31T06:56:09;21.60;99.90
13794;DHT22;31160;49.500;7.772;2023-07-31T06:58:36;21.90;99.90
13794;DHT22;31160;49.500;7.772;2023-07-31T07:01:02;21.80;99.90
13794;DHT22;31160;49.500;7.772;2023-07-31T07:03:30;21.60;99.90
13794;DHT22;31160;49.500;7.772;2023-07-31T07:05:57;22.00;99.90
13794;DHT22;31160;49.500;7.772;2023-07-31T07:08:24;22.20;99.90
13794;DHT22;31160;49.500;7.772;2023-07-31T07:10:53;22.40;99.90
13794;DHT22;31160;49.500;7.772;2023-07-31T07:13:21;22.80;99.80
13794;DHT22;31160;49.500;7.772;2023-07-31T07:15:51;23.10;99.80
13794;DHT22;31160;49.500;7.772;2023-07-31T07:18:18;23.20;99.40
13794;DHT22;31160;49.500;7.772;2023-07-31T07:20:50;23.00;99.50
13794;DHT22;31160;49.500;7.772;2023-07-31T07:23:17;23.00;99.60
13794;DHT22;31160;49.500;7.772;2023-07-31T07:25:46;22.70;99.60
13794;DHT22;31160;49.500;7.772;2023-07-31T07:28:13;22.20;99.90
13794;DHT22;31160;49.500;7.772;2023-07-31T07:30:41;22.10;99.90
13794;DHT22;31160;49.500;7.772;2023-07-31T07:33:08;21.80;99.90
13794;DHT22;31160;49.500;7.772;2023-07-31T07:35:35;22.10;99.90
13794;DHT22;31160;49.500;7.772;2023-07-31T07:38:03;22.00;99.90
13794;DHT22;31160;49.500;7.772;2023-07-31T07:40:30;22.10;99.90
13794;DHT22;31160;49.500;7.772;2023-07-31T07:42:56;22.10;99.90
13794;DHT22;31160;49.500;7.772;2023-07-31T07:45:23;21.70;99.90
13794;DHT22;31160;49.500;7.772;2023-07-31T07:47:50;21.40;99.90
13794;DHT22;31160;49.500;7.772;2023-07-31T07:50:17;21.50;99.90
13794;DHT22;31160;49.500;7.772;2023-07-31T07:52:43;21.90;99.90
13794;DHT22;31160;49.500;7.772;2023-07-31T07:55:10;21.60;99.90
13794;DHT22;31160;49.500;7.772;2023-07-31T07:57:37;21.50;99.90
13794;DHT22;31160;49.500;7.772;2023-07-31T08:00:04;21.30;99.90
13794;DHT22;31160;49.500;7.772;2023-07-31T08:02:39;21.40;99.90
13794;DHT22;31160;49.500;7.772;2023-07-31T08:05:06;21.60;99.90
13794;DHT22;31160;49.500;7.772;2023-07-31T08:07:33;21.70;99.90
13794;DHT22;31160;49.500;7.772;2023-07-31T08:10:00;21.70;99.90
13794;DHT22;31160;49.500;7.772;2023-07-31T08:12:26;21.40;99.90
13794;DHT22;31160;49.500;7.772;2023-07-31T08:14:53;21.30;99.90
13794;DHT22;31160;49.500;7.772;2023-07-31T08:17:20;21.30;99.90
13794;DHT22;31160;49.500;7.772;2023-07-31T08:19:47;21.30;99.90
13794;DHT22;31160;49.500;7.772;2023-07-31T08:22:13;21.40;99.90
13794;DHT22;31160;49.500;7.772;2023-07-31T08:24:41;21.50;99.90
13794;DHT22;31160;49.500;7.772;2023-07-31T08:27:07;21.60;99.90
13794;DHT22;31160;49.500;7.772;2023-07-31T08:29:34;21.60;99.90
13794;DHT22;31160;49.500;7.772;2023-07-31T08:32:01;22.20;99.90
13794;DHT22;31160;49.500;7.772;2023-07-31T08:34:27;22.30;99.90
13794;DHT22;31160;49.500;7.772;2023-07-31T08:36:54;22.70;99.90
13794;DHT22;31160;49.500;7.772;2023-07-31T08:39:21;23.00;99.40
13794;DHT22;31160;49.500;7.772;2023-07-31T08:41:48;23.00;99.50
13794;DHT22;31160;49.500;7.772;2023-07-31T08:44:15;23.10;99.30
13794;DHT22;31160;49.500;7.772;2023-07-31T08:46:42;23.00;99.00
13794;DHT22;31160;49.500;7.772;2023-07-31T08:49:10;22.90;99.10
13794;DHT22;31160;49.500;7.772;2023-07-31T08:51:37;22.50;98.80
13794;DHT22;31160;49.500;7.772;2023-07-31T08:54:05;22.50;99.70
13794;DHT22;31160;49.500;7.772;2023-07-31T08:56:32;22.70;99.50
13794;DHT22;31160;49.500;7.772;2023-07-31T08:59:02;22.30;99.00
13794;DHT22;31160;49.500;7.772;2023-07-31T09:01:34;22.10;99.60
13794;DHT22;31160;49.500;7.772;2023-07-31T09:04:04;22.30;99.90
13794;DHT22;31160;49.500;7.772;2023-07-31T09:06:32;22.40;99.50
13794;DHT22;31160;49.500;7.772;2023-07-31T09:08:58;22.40;99.70
13794;DHT22;31160;49.500;7.772;2023-07-31T09:11:25;22.80;99.40
13794;DHT22;31160;49.500;7.772;2023-07-31T09:13:53;22.50;99.20
13794;DHT22;31160;49.500;7.772;2023-07-31T09:16:28;22.80;99.30
13794;DHT22;31160;49.500;7.772;2023-07-31T09:18:57;23.10;98.90
13794;DHT22;31160;49.500;7.772;2023-07-31T09:21:25;23.30;98.50
13794;DHT22;31160;49.500;7.772;2023-07-31T09:23:52;23.60;98.50
13794;DHT22;31160;49.500;7.772;2023-07-31T09:26:31;23.60;98.00
13794;DHT22;31160;49.500;7.772;2023-07-31T09:29:18;23.80;98.20
13794;DHT22;31160;49.500;7.772;2023-07-31T09:31:45;23.80;98.00
13794;DHT22;31160;49.500;7.772;2023-07-31T09:34:12;23.40;97.40
13794;DHT22;31160;49.500;7.772;2023-07-31T09:36:50;23.50;97.60
13794;DHT22;31160;49.500;7.772;2023-07-31T09:39:17;23.50;97.70
13794;DHT22;31160;49.500;7.772;2023-07-31T09:41:56;23.70;98.00
13794;DHT22;31160;49.500;7.772;2023-07-31T09:44:39;23.60;97.90
13794;DHT22;31160;49.500;7.772;2023-07-31T09:47:23;23.30;97.40
13794;DHT22;31160;49.500;7.772;2023-07-31T09:49:53;23.40;97.60
13794;DHT22;31160;49.500;7.772;2023-07-31T09:52:20;23.40;98.20
13794;DHT22;31160;49.500;7.772;2023-07-31T09:54:47;23.30;97.60
13794;DHT22;31160;49.500;7.772;2023-07-31T09:57:14;23.20;97.80
13794;DHT22;31160;49.500;7.772;2023-07-31T09:59:44;22.90;98.60
13794;DHT22;31160;49.500;7.772;2023-07-31T10:02:15;22.90;98.20
13794;DHT22;31160;49.500;7.772;2023-07-31T10:04:49;23.00;98.90
13794;DHT22;31160;49.500;7.772;2023-07-31T10:07:17;23.70;98.00
13794;DHT22;31160;49.500;7.772;2023-07-31T10:09:45;23.90;97.50
13794;DHT22;31160;49.500;7.772;2023-07-31T10:12:14;24.00;97.60
13794;DHT22;31160;49.500;7.772;2023-07-31T10:14:44;23.30;97.90
13794;DHT22;31160;49.500;7.772;2023-07-31T10:17:11;23.10;98.00
13794;DHT22;31160;49.500;7.772;2023-07-31T10:19:39;23.20;98.60
13794;DHT22;31160;49.500;7.772;2023-07-31T10:22:06;23.30;98.40
13794;DHT22;31160;49.500;7.772;2023-07-31T10:24:36;23.40;99.10
13794;DHT22;31160;49.500;7.772;2023-07-31T10:27:04;23.50;98.30
13794;DHT22;31160;49.500;7.772;2023-07-31T10:29:31;23.40;98.20
13794;DHT22;31160;49.500;7.772;2023-07-31T10:31:59;23.10;98.90
13794;DHT22;31160;49.500;7.772;2023-07-31T10:34:26;23.40;98.60
13794;DHT22;31160;49.500;7.772;2023-07-31T10:37:25;23.60;98.20
13794;DHT22;31160;49.500;7.772;2023-07-31T10:40:05;23.80;97.90
13794;DHT22;31160;49.500;7.772;2023-07-31T10:42:35;23.60;98.20
13794;DHT22;31160;49.500;7.772;2023-07-31T10:45:06;23.50;98.20
13794;DHT22;31160;49.500;7.772;2023-07-31T10:47:43;23.60;98.10
13794;DHT22;31160;49.500;7.772;2023-07-31T10:50:22;23.80;98.10
13794;DHT22;31160;49.500;7.772;2023-07-31T10:52:52;23.90;98.50
13794;DHT22;31160;49.500;7.772;2023-07-31T10:58:06;23.70;98.20
13794;DHT22;31160;49.500;7.772;2023-07-31T11:00:34;23.90;98.10
13794;DHT22;31160;49.500;7.772;2023-07-31T11:03:09;24.00;98.00
13794;DHT22;31160;49.500;7.772;2023-07-31T11:05:46;24.10;97.90
13794;DHT22;31160;49.500;7.772;2023-07-31T11:08:24;24.30;97.60
13794;DHT22;31160;49.500;7.772;2023-07-31T11:11:06;24.10;97.80
13794;DHT22;31160;49.500;7.772;2023-07-31T11:13:52;24.20;97.00
13794;DHT22;31160;49.500;7.772;2023-07-31T11:16:21;24.70;96.80
13794;DHT22;31160;49.500;7.772;2023-07-31T11:18:49;24.60;96.80
13794;DHT22;31160;49.500;7.772;2023-07-31T11:21:22;24.70;97.00
13794;DHT22;31160;49.500;7.772;2023-07-31T11:23:54;24.80;96.40
13794;DHT22;31160;49.500;7.772;2023-07-31T11:26:25;24.80;96.60
13794;DHT22;31160;49.500;7.772;2023-07-31T11:28:52;25.00;95.80
13794;DHT22;31160;49.500;7.772;2023-07-31T11:31:19;24.70;96.50
13794;DHT22;31160;49.500;7.772;2023-07-31T11:33:46;24.00;96.20
13794;DHT22;31160;49.500;7.772;2023-07-31T11:36:17;23.90;96.90
13794;DHT22;31160;49.500;7.772;2023-07-31T11:38:45;24.00;96.10
13794;DHT22;31160;49.500;7.772;2023-07-31T11:41:14;23.90;96.40
13794;DHT22;31160;49.500;7.772;2023-07-31T11:43:42;24.10;96.10
13794;DHT22;31160;49.500;7.772;2023-07-31T11:46:09;24.20;96.20
13794;DHT22;31160;49.500;7.772;2023-07-31T11:48:37;24.00;95.60
13794;DHT22;31160;49.500;7.772;2023-07-31T11:51:08;24.20;95.60
13794;DHT22;31160;49.500;7.772;2023-07-31T11:53:53;24.40;95.40
13794;DHT22;31160;49.500;7.772;2023-07-31T11:56:22;24.20;95.60
13794;DHT22;31160;49.500;7.772;2023-07-31T11:58:58;24.20;95.90
13794;DHT22;31160;49.500;7.772;2023-07-31T12:01:26;24.70;95.40
13794;DHT22;31160;49.500;7.772;2023-07-31T12:03:54;25.00;95.40
13794;DHT22;31160;49.500;7.772;2023-07-31T12:06:21;25.00;95.10
13794;DHT22;31160;49.500;7.772;2023-07-31T12:08:48;25.20;95.40
13794;DHT22;31160;49.500;7.772;2023-07-31T12:11:15;25.30;95.40
13794;DHT22;31160;49.500;7.772;2023-07-31T12:13:44;25.20;95.10
13794;DHT22;31160;49.500;7.772;2023-07-31T12:16:11;25.70;95.10
13794;DHT22;31160;49.500;7.772;2023-07-31T12:18:38;25.60;94.50
13794;DHT22;31160;49.500;7.772;2023-07-31T12:21:07;25.30;95.30
13794;DHT22;31160;49.500;7.772;2023-07-31T12:23:36;25.10;95.20
13794;DHT22;31160;49.500;7.772;2023-07-31T12:26:15;25.20;95.20
13794;DHT22;31160;49.500;7.772;2023-07-31T12:28:47;24.90;95.70
13794;DHT22;31160;49.500;7.772;2023-07-31T12:31:21;24.50;96.00
13794;DHT22;31160;49.500;7.772;2023-07-31T12:33:50;24.40;96.10
13794;DHT22;31160;49.500;7.772;2023-07-31T12:36:20;24.50;96.00
13794;DHT22;31160;49.500;7.772;2023-07-31T12:38:48;24.20;96.20
13794;DHT22;31160;49.500;7.772;2023-07-31T12:41:16;24.40;96.40
13794;DHT22;31160;49.500;7.772;2023-07-31T12:43:44;24.70;96.20
13794;DHT22;31160;49.500;7.772;2023-07-31T12:46:11;24.60;95.80
13794;DHT22;31160;49.500;7.772;2023-07-31T12:48:38;24.60;96.00
13794;DHT22;31160;49.500;7.772;2023-07-31T12:51:05;24.50;96.00
13794;DHT22;31160;49.500;7.772;2023-07-31T12:53:34;24.60;96.20
13794;DHT22;31160;49.500;7.772;2023-07-31T12:56:01;24.60;96.00
13794;DHT22;31160;49.500;7.772;2023-07-31T12:58:28;24.40;96.00
13794;DHT22;31160;49.500;7.772;2023-07-31T13:00:55;24.30;96.00
13794;DHT22;31160;49.500;7.772;2023-07-31T13:03:22;24.20;96.30
13794;DHT22;31160;49.500;7.772;2023-07-31T13:05:50;24.00;96.80
13794;DHT22;31160;49.500;7.772;2023-07-31T13:08:16;23.30;97.00
13794;DHT22;31160;49.500;7.772;2023-07-31T13:10:44;23.20;97.60
13794;DHT22;31160;49.500;7.772;2023-07-31T13:13:11;23.30;97.40
13794;DHT22;31160;49.500;7.772;2023-07-31T13:15:38;23.40;97.80
13794;DHT22;31160;49.500;7.772;2023-07-31T13:18:04;23.40;97.50
13794;DHT22;31160;49.500;7.772;2023-07-31T13:20:31;23.00;98.00
13794;DHT22;31160;49.500;7.772;2023-07-31T13:22:58;23.10;97.90
13794;DHT22;31160;49.500;7.772;2023-07-31T13:25:25;23.30;97.80
13794;DHT22;31160;49.500;7.772;2023-07-31T13:27:51;23.00;98.30
13794;DHT22;31160;49.500;7.772;2023-07-31T13:30:18;22.90;98.50
13794;DHT22;31160;49.500;7.772;2023-07-31T13:32:45;22.70;98.70
13794;DHT22;31160;49.500;7.772;2023-07-31T13:35:12;22.90;98.50
13794;DHT22;31160;49.500;7.772;2023-07-31T13:37:39;22.90;98.50
13794;DHT22;31160;49.500;7.772;2023-07-31T13:40:06;22.90;98.60
13794;DHT22;31160;49.500;7.772;2023-07-31T13:42:33;22.70;98.70
13794;DHT22;31160;49.500;7.772;2023-07-31T13:45:00;22.70;98.80
13794;DHT22;31160;49.500;7.772;2023-07-31T13:47:29;22.80;98.80
13794;DHT22;31160;49.500;7.772;2023-07-31T13:49:55;23.10;98.60
13794;DHT22;31160;49.500;7.772;2023-07-31T13:52:22;23.00;98.50
13794;DHT22;31160;49.500;7.772;2023-07-31T13:54:49;23.10;98.50
13794;DHT22;31160;49.500;7.772;2023-07-31T13:57:16;23.40;98.30
13794;DHT22;31160;49.500;7.772;2023-07-31T13:59:43;23.30;98.50
13794;DHT22;31160;49.500;7.772;2023-07-31T14:02:10;23.10;98.60
13794;DHT22;31160;49.500;7.772;2023-07-31T14:04:37;22.90;99.20
13794;DHT22;31160;49.500;7.772;2023-07-31T14:07:03;22.90;98.60
13794;DHT22;31160;49.500;7.772;2023-07-31T14:09:31;22.70;99.10
13794;DHT22;31160;49.500;7.772;2023-07-31T14:11:57;22.70;99.40
13794;DHT22;31160;49.500;7.772;2023-07-31T14:14:24;22.70;99.30
13794;DHT22;31160;49.500;7.772;2023-07-31T14:16:51;22.90;99.30
13794;DHT22;31160;49.500;7.772;2023-07-31T14:19:18;23.00;98.90
13794;DHT22;31160;49.500;7.772;2023-07-31T14:21:45;22.90;98.90
13794;DHT22;31160;49.500;7.772;2023-07-31T14:24:26;22.80;99.10
13794;DHT22;31160;49.500;7.772;2023-07-31T14:26:53;23.10;98.70
13794;DHT22;31160;49.500;7.772;2023-07-31T14:29:20;23.30;99.10
13794;DHT22;31160;49.500;7.772;2023-07-31T14:31:46;23.60;98.60
13794;DHT22;31160;49.500;7.772;2023-07-31T14:34:13;23.90;98.20
13794;DHT22;31160;49.500;7.772;2023-07-31T14:36:40;24.20;98.10
13794;DHT22;31160;49.500;7.772;2023-07-31T14:39:07;24.30;97.60
13794;DHT22;31160;49.500;7.772;2023-07-31T14:41:34;24.40;97.50
13794;DHT22;31160;49.500;7.772;2023-07-31T14:44:01;24.50;97.70
13794;DHT22;31160;49.500;7.772;2023-07-31T14:46:27;24.60;97.10
13794;DHT22;31160;49.500;7.772;2023-07-31T14:48:54;24.50;96.90
13794;DHT22;31160;49.500;7.772;2023-07-31T14:51:21;24.50;96.90
13794;DHT22;31160;49.500;7.772;2023-07-31T14:53:48;24.00;97.60
13794;DHT22;31160;49.500;7.772;2023-07-31T14:56:14;23.80;97.90
13794;DHT22;31160;49.500;7.772;2023-07-31T14:58:41;24.00;98.10
13794;DHT22;31160;49.500;7.772;2023-07-31T15:01:08;23.70;97.80
13794;DHT22;31160;49.500;7.772;2023-07-31T15:03:35;23.60;98.60
13794;DHT22;31160;49.500;7.772;2023-07-31T15:06:01;23.30;99.00
13794;DHT22;31160;49.500;7.772;2023-07-31T15:08:28;23.40;98.80
13794;DHT22;31160;49.500;7.772;2023-07-31T15:10:55;23.40;99.10
13794;DHT22;31160;49.500;7.772;2023-07-31T15:13:24;23.40;98.90
13794;DHT22;31160;49.500;7.772;2023-07-31T15:15:51;23.50;98.70
13794;DHT22;31160;49.500;7.772;2023-07-31T15:18:18;23.20;98.80
13794;DHT22;31160;49.500;7.772;2023-07-31T15:20:45;23.10;99.20
13794;DHT22;31160;49.500;7.772;2023-07-31T15:23:11;23.20;99.30
13794;DHT22;31160;49.500;7.772;2023-07-31T15:25:38;23.10;99.60
13794;DHT22;31160;49.500;7.772;2023-07-31T15:28:05;23.00;99.90
13794;DHT22;31160;49.500;7.772;2023-07-31T15:30:33;22.90;99.90
13794;DHT22;31160;49.500;7.772;2023-07-31T15:33:01;22.90;99.90
13794;DHT22;31160;49.500;7.772;2023-07-31T15:35:28;23.00;99.90
13794;DHT22;31160;49.500;7.772;2023-07-31T15:37:55;22.90;99.90
13794;DHT22;31160;49.500;7.772;2023-07-31T15:40:21;23.00;99.90
13794;DHT22;31160;49.500;7.772;2023-07-31T15:42:48;23.00;99.90